Time;durP1;ratioP1;P1;durP2;ratioP2;P2;SDS_P1;SDS_P2;PMS_P1;PMS_P2;Temp;Humidity;BMP_temperature;BMP_pressure;BME280_temperature;BME280_humidity;BME280_pressure;Samples;Min_cycle;Max_cycle;Signal;HPM_P1;HPM_P2
2021/05/08 00:01:23;;;;;;;22.75;12.80;;;;;;;;;;5005235;28;20042;-55
2021/05/08 00:03:49;;;;;;;21.30;13.02;;;;;;;;;;5006303;28;20037;-56
2021/05/08 00:06:19;;;;;;;26.83;13.75;;;;;;;;;;5004906;28;20058;-53
2021/05/08 00:08:45;;;;;;;26.70;13.77;;;;;;;;;;5004076;28;20513;-54
2021/05/08 00:11:11;;;;;;;27.77;13.70;;;;;;;;;;5002573;28;20038;-56
2021/05/08 00:13:38;;;;;;;25.83;14.07;;;;;;;;;;5001182;28;20050;-56
2021/05/08 00:16:05;;;;;;;24.90;13.43;;;;;;;;;;5006741;28;20494;-55
2021/05/08 00:18:31;;;;;;;25.83;13.27;;;;;;;;;;5004565;28;21081;-55
2021/05/08 00:20:58;;;;;;;24.35;12.75;;;;;;;;;;5004253;28;20042;-53
2021/05/08 00:23:26;;;;;;;23.27;13.45;;;;;;;;;;5006805;28;20073;-56
2021/05/08 00:25:52;;;;;;;34.17;13.65;;;;;;;;;;5006286;28;20559;-53
2021/05/08 00:28:18;;;;;;;24.83;13.00;;;;;;;;;;4999603;28;20043;-54
2021/05/08 00:30:44;;;;;;;28.77;13.98;;;;;;;;;;5007518;28;20034;-54
2021/05/08 00:33:11;;;;;;;26.55;14.18;;;;;;;;;;5004927;28;20789;-55
2021/05/08 00:35:37;;;;;;;30.85;13.70;;;;;;;;;;5001371;28;20042;-54
2021/05/08 00:38:03;;;;;;;29.52;13.48;;;;;;;;;;5000267;28;20133;-54
2021/05/08 00:40:30;;;;;;;23.30;12.57;;;;;;;;;;4984607;28;20065;-55
2021/05/08 00:42:57;;;;;;;20.23;12.68;;;;;;;;;;5001543;28;20406;-55
2021/05/08 00:45:24;;;;;;;25.05;12.98;;;;;;;;;;4991988;28;20049;-56
2021/05/08 00:47:57;;;;;;;26.10;12.43;;;;;;;;;;4999813;28;20092;-53
2021/05/08 00:50:23;;;;;;;23.40;13.20;;;;;;;;;;5005874;28;20050;-56
2021/05/08 00:52:50;;;;;;;20.05;10.93;;;;;;;;;;5002241;28;20038;-57
2021/05/08 00:55:18;;;;;;;25.38;12.23;;;;;;;;;;4985201;28;20524;-54
2021/05/08 00:57:45;;;;;;;18.00;8.70;;;;;;;;;;4987647;28;20124;-56
2021/05/08 01:00:11;;;;;;;28.30;13.27;;;;;;;;;;4989541;28;20060;-53
2021/05/08 01:02:40;;;;;;;22.77;12.00;;;;;;;;;;4988076;28;20497;-54
2021/05/08 01:05:08;;;;;;;25.17;12.85;;;;;;;;;;4983152;28;20058;-56
2021/05/08 01:07:36;;;;;;;21.75;12.65;;;;;;;;;;4983877;28;20038;-54
2021/05/08 01:10:04;;;;;;;23.17;12.70;;;;;;;;;;5002684;28;20505;-52
2021/05/08 01:12:32;;;;;;;23.08;11.98;;;;;;;;;;5005511;28;20052;-52
2021/05/08 01:15:00;;;;;;;28.60;13.45;;;;;;;;;;4990202;28;20072;-52
2021/05/08 01:17:28;;;;;;;24.20;13.38;;;;;;;;;;4991408;28;20166;-56
2021/05/08 01:19:55;;;;;;;25.35;12.82;;;;;;;;;;4986494;28;20104;-56
2021/05/08 01:22:22;;;;;;;23.67;11.20;;;;;;;;;;4970033;28;20034;-55
2021/05/08 01:24:49;;;;;;;31.77;15.15;;;;;;;;;;5002613;28;20065;-53
2021/05/08 01:27:18;;;;;;;28.70;14.30;;;;;;;;;;4999246;28;20524;-55
2021/05/08 01:29:44;;;;;;;32.60;14.07;;;;;;;;;;5002059;28;20048;-57
2021/05/08 01:32:11;;;;;;;31.70;14.18;;;;;;;;;;4985240;28;20108;-56
2021/05/08 01:34:39;;;;;;;28.55;14.25;;;;;;;;;;4973631;28;20521;-56
2021/05/08 01:37:07;;;;;;;32.38;14.93;;;;;;;;;;5005999;28;20124;-55
2021/05/08 01:39:34;;;;;;;34.20;14.20;;;;;;;;;;5006702;28;20128;-56
2021/05/08 01:42:00;;;;;;;28.20;14.10;;;;;;;;;;4986372;28;20045;-51
2021/05/08 01:44:27;;;;;;;35.03;15.32;;;;;;;;;;5004818;28;20037;-57
2021/05/08 01:46:54;;;;;;;28.35;14.65;;;;;;;;;;5001618;28;20134;-52
2021/05/08 01:49:22;;;;;;;31.20;14.93;;;;;;;;;;5001689;28;20129;-54
2021/05/08 01:51:48;;;;;;;35.78;15.27;;;;;;;;;;4991955;28;20030;-55
2021/05/08 01:54:15;;;;;;;36.60;15.70;;;;;;;;;;5001246;28;20576;-55
2021/05/08 01:56:42;;;;;;;21.92;10.68;;;;;;;;;;5006687;28;20566;-51
2021/05/08 01:59:15;;;;;;;36.50;15.07;;;;;;;;;;4986583;28;20060;-54
2021/05/08 02:01:43;;;;;;;33.15;15.48;;;;;;;;;;4986341;28;20645;-53
2021/05/08 02:04:11;;;;;;;33.17;15.35;;;;;;;;;;4989911;28;20133;-53
2021/05/08 02:06:39;;;;;;;37.85;15.75;;;;;;;;;;4986094;28;20042;-55
2021/05/08 02:09:32;;;;;;;31.40;14.73;;;;;;;;;;4999451;28;20046;-54
2021/05/08 02:12:01;;;;;;;29.02;13.35;;;;;;;;;;4985686;28;20039;-56
2021/05/08 02:14:27;;;;;;;33.88;15.40;;;;;;;;;;5004131;28;20049;-55
2021/05/08 02:16:54;;;;;;;32.45;15.48;;;;;;;;;;4992084;28;20046;-55
2021/05/08 02:19:20;;;;;;;29.15;14.38;;;;;;;;;;4994466;28;20058;-55
2021/05/08 02:21:47;;;;;;;42.25;16.67;;;;;;;;;;5008618;28;20041;-51
2021/05/08 02:24:13;;;;;;;37.17;15.93;;;;;;;;;;4990529;28;20061;-54
2021/05/08 02:26:40;;;;;;;40.85;17.33;;;;;;;;;;4987923;28;20505;-56
2021/05/08 02:29:09;;;;;;;43.28;17.15;;;;;;;;;;4990578;28;20049;-53
2021/05/08 02:31:35;;;;;;;38.38;17.35;;;;;;;;;;5008871;28;20073;-55
2021/05/08 02:34:02;;;;;;;36.65;17.42;;;;;;;;;;4984066;28;20070;-54
2021/05/08 02:36:29;;;;;;;49.80;18.30;;;;;;;;;;5007848;28;20048;-54
2021/05/08 02:38:55;;;;;;;41.97;17.87;;;;;;;;;;4987627;28;20038;-56
2021/05/08 02:41:22;;;;;;;35.38;13.95;;;;;;;;;;5003291;28;20046;-54
2021/05/08 02:43:49;;;;;;;41.03;17.63;;;;;;;;;;4992734;28;20037;-53
2021/05/08 02:46:16;;;;;;;52.45;19.40;;;;;;;;;;5003406;28;20042;-55
2021/05/08 02:48:43;;;;;;;48.05;19.33;;;;;;;;;;5006856;28;20038;-52
2021/05/08 02:51:10;;;;;;;47.88;18.30;;;;;;;;;;5003404;28;20081;-54
2021/05/08 02:53:37;;;;;;;48.70;18.63;;;;;;;;;;5003631;28;20046;-53
2021/05/08 02:56:05;;;;;;;44.97;18.98;;;;;;;;;;5007629;28;20042;-53
2021/05/08 02:58:37;;;;;;;44.85;17.85;;;;;;;;;;4991650;28;20379;-49
2021/05/08 03:01:03;;;;;;;48.20;19.15;;;;;;;;;;5004782;28;20391;-54
2021/05/08 03:03:30;;;;;;;46.55;18.75;;;;;;;;;;5003941;28;20038;-54
2021/05/08 03:05:56;;;;;;;48.80;19.13;;;;;;;;;;4990979;28;20048;-55
2021/05/08 03:08:30;;;;;;;55.80;21.02;;;;;;;;;;5005243;28;20046;-55
2021/05/08 03:10:59;;;;;;;52.78;20.23;;;;;;;;;;5004908;28;20030;-51
2021/05/08 03:13:27;;;;;;;54.15;20.45;;;;;;;;;;5006017;28;20042;-52
2021/05/08 03:15:53;;;;;;;62.40;21.23;;;;;;;;;;5007792;28;20046;-53
2021/05/08 03:18:21;;;;;;;55.63;20.67;;;;;;;;;;5008140;28;20038;-52
2021/05/08 03:20:48;;;;;;;52.95;20.75;;;;;;;;;;5010026;28;20628;-52
2021/05/08 03:23:14;;;;;;;51.25;20.98;;;;;;;;;;4994418;28;20049;-54
2021/05/08 03:25:42;;;;;;;56.97;21.52;;;;;;;;;;4991062;28;20528;-51
2021/05/08 03:28:08;;;;;;;53.78;21.05;;;;;;;;;;5003949;28;20065;-52
2021/05/08 03:30:38;;;;;;;61.58;22.38;;;;;;;;;;5008666;28;20124;-51
2021/05/08 03:33:07;;;;;;;60.50;22.40;;;;;;;;;;5008127;28;20104;-50
2021/05/08 03:35:34;;;;;;;60.97;23.23;;;;;;;;;;5006065;28;20034;-55
2021/05/08 03:38:03;;;;;;;54.58;21.50;;;;;;;;;;4989379;28;20035;-50
2021/05/08 03:40:29;;;;;;;64.38;23.50;;;;;;;;;;5009379;28;20140;-53
2021/05/08 03:42:56;;;;;;;59.97;23.20;;;;;;;;;;5005949;28;20132;-53
2021/05/08 03:45:22;;;;;;;72.88;25.33;;;;;;;;;;5007979;28;20046;-52
2021/05/08 03:47:50;;;;;;;63.25;23.27;;;;;;;;;;5005608;28;20049;-51
2021/05/08 03:50:17;;;;;;;39.22;15.90;;;;;;;;;;5007070;28;20494;-49
2021/05/08 03:52:43;;;;;;;54.25;21.77;;;;;;;;;;5003495;28;20053;-56
2021/05/08 03:55:12;;;;;;;41.22;20.33;;;;;;;;;;5004056;28;20118;-53
2021/05/08 03:57:38;;;;;;;41.05;18.70;;;;;;;;;;5001620;28;20057;-53
2021/05/08 04:00:05;;;;;;;35.67;16.95;;;;;;;;;;5003607;28;20124;-56
2021/05/08 04:02:38;;;;;;;22.95;13.63;;;;;;;;;;5005268;28;20046;-55
2021/05/08 04:05:04;;;;;;;29.75;12.27;;;;;;;;;;5001861;28;20540;-54
2021/05/08 04:07:30;;;;;;;21.30;11.88;;;;;;;;;;5004805;28;20505;-56
2021/05/08 04:09:56;;;;;;;16.60;10.80;;;;;;;;;;5000092;28;20410;-54
2021/05/08 04:12:23;;;;;;;20.05;11.18;;;;;;;;;;5006742;28;20045;-55
2021/05/08 04:14:49;;;;;;;17.23;9.20;;;;;;;;;;5003498;28;20041;-55
2021/05/08 04:17:15;;;;;;;16.48;9.60;;;;;;;;;;5004057;28;20088;-56
2021/05/08 04:19:41;;;;;;;18.02;9.85;;;;;;;;;;5003029;28;20037;-51
2021/05/08 04:22:07;;;;;;;14.00;8.55;;;;;;;;;;5002084;28;20064;-55
2021/05/08 04:24:34;;;;;;;17.67;9.73;;;;;;;;;;5007078;28;20038;-55
2021/05/08 04:27:00;;;;;;;21.17;9.65;;;;;;;;;;5002897;28;20124;-53
2021/05/08 04:29:26;;;;;;;15.77;9.20;;;;;;;;;;5000804;28;20039;-56
2021/05/08 04:31:52;;;;;;;14.00;9.50;;;;;;;;;;5001474;28;20046;-55
2021/05/08 04:34:19;;;;;;;14.40;9.10;;;;;;;;;;5000612;28;20045;-56
2021/05/08 04:36:46;;;;;;;14.55;8.95;;;;;;;;;;5002873;28;20494;-56
2021/05/08 04:39:13;;;;;;;15.87;8.80;;;;;;;;;;5001924;28;20513;-55
2021/05/08 04:41:39;;;;;;;14.60;9.43;;;;;;;;;;5002209;28;20384;-55
2021/05/08 04:44:05;;;;;;;16.17;8.68;;;;;;;;;;5001053;28;20026;-56
2021/05/08 04:46:32;;;;;;;11.73;8.10;;;;;;;;;;5002418;28;20050;-55
2021/05/08 04:48:58;;;;;;;9.98;7.35;;;;;;;;;;5000011;28;20089;-57
2021/05/08 04:51:24;;;;;;;9.48;7.15;;;;;;;;;;5000787;28;20045;-54
2021/05/08 04:53:51;;;;;;;9.27;7.15;;;;;;;;;;5004983;28;21970;-57
2021/05/08 04:56:17;;;;;;;10.82;7.40;;;;;;;;;;5002711;28;20166;-57
2021/05/08 04:58:44;;;;;;;10.30;7.13;;;;;;;;;;4980547;28;20125;-56
2021/05/08 05:01:10;;;;;;;9.60;6.70;;;;;;;;;;5004666;28;20044;-56
2021/05/08 05:03:37;;;;;;;11.98;6.72;;;;;;;;;;5005527;28;20037;-55
2021/05/08 05:06:03;;;;;;;12.15;6.10;;;;;;;;;;5005008;28;20073;-57
2021/05/08 05:08:32;;;;;;;13.00;6.43;;;;;;;;;;4997921;28;20050;-56
2021/05/08 05:10:58;;;;;;;10.40;6.50;;;;;;;;;;5005197;28;20061;-57
2021/05/08 05:13:24;;;;;;;8.93;5.90;;;;;;;;;;5001301;28;20041;-58
2021/05/08 05:15:51;;;;;;;14.00;6.47;;;;;;;;;;5006463;28;20125;-56
2021/05/08 05:18:18;;;;;;;9.27;5.80;;;;;;;;;;5004060;28;20042;-57
2021/05/08 05:20:45;;;;;;;10.40;5.22;;;;;;;;;;5004424;28;20042;-54
2021/05/08 05:23:12;;;;;;;8.43;6.05;;;;;;;;;;5005475;28;20397;-56
2021/05/08 05:25:38;;;;;;;11.45;5.68;;;;;;;;;;5000701;28;20042;-56
2021/05/08 05:28:18;;;;;;;8.98;6.22;;;;;;;;;;5004581;28;20045;-54
2021/05/08 05:30:46;;;;;;;11.30;5.85;;;;;;;;;;5003400;28;20042;-55
2021/05/08 05:33:12;;;;;;;9.15;5.50;;;;;;;;;;4986328;28;20490;-56
2021/05/08 05:35:38;;;;;;;8.82;5.07;;;;;;;;;;5001761;28;20042;-56
2021/05/08 05:38:05;;;;;;;12.48;4.88;;;;;;;;;;5001456;28;20124;-56
2021/05/08 05:40:33;;;;;;;10.35;4.85;;;;;;;;;;4989245;28;20068;-57
2021/05/08 05:42:59;;;;;;;8.38;4.68;;;;;;;;;;5001293;28;20100;-56
2021/05/08 05:45:26;;;;;;;11.40;4.68;;;;;;;;;;4991391;28;20042;-57
2021/05/08 05:47:59;;;;;;;12.63;4.82;;;;;;;;;;5008413;28;20042;-52
2021/05/08 05:50:25;;;;;;;9.43;5.25;;;;;;;;;;4992352;28;20050;-56
2021/05/08 05:52:55;;;;;;;6.35;4.18;;;;;;;;;;5008265;28;20049;-54
2021/05/08 05:55:22;;;;;;;10.13;4.20;;;;;;;;;;5007200;28;20096;-54
2021/05/08 05:57:51;;;;;;;8.50;4.50;;;;;;;;;;4994975;28;20072;-56
2021/05/08 06:00:20;;;;;;;10.43;4.10;;;;;;;;;;5006838;28;20569;-53
2021/05/08 06:02:46;;;;;;;8.38;4.07;;;;;;;;;;5012261;28;20981;-57
2021/05/08 06:05:14;;;;;;;9.88;3.83;;;;;;;;;;5011603;28;20128;-55
2021/05/08 06:07:40;;;;;;;7.38;3.83;;;;;;;;;;5010869;28;20077;-54
2021/05/08 06:10:07;;;;;;;10.10;3.88;;;;;;;;;;5009417;28;20034;-55
2021/05/08 06:12:33;;;;;;;10.23;4.28;;;;;;;;;;5011303;28;20169;-52
2021/05/08 06:15:00;;;;;;;12.68;3.90;;;;;;;;;;5008571;28;20077;-56
2021/05/08 06:17:31;;;;;;;7.30;3.47;;;;;;;;;;5005405;28;20474;-56
2021/05/08 06:19:58;;;;;;;8.23;3.70;;;;;;;;;;5005418;28;20056;-55
2021/05/08 06:22:25;;;;;;;10.40;3.97;;;;;;;;;;5005540;28;20042;-55
2021/05/08 06:24:52;;;;;;;9.60;3.80;;;;;;;;;;5003320;28;20027;-55
2021/05/08 06:27:18;;;;;;;6.25;3.55;;;;;;;;;;5002723;28;20294;-56
2021/05/08 06:29:45;;;;;;;15.77;4.32;;;;;;;;;;5004087;28;20038;-53
2021/05/08 06:36:05;;;;;;;12.85;3.78;;;;;;;;;;5811182;22;20051;-55
2021/05/08 06:38:51;;;;;;;8.70;3.50;;;;;;;;;;5033212;28;20053;-57
2021/05/08 06:46:07;;;;;;;12.50;3.60;;;;;;;;;;5036100;28;20041;-52
2021/05/08 06:49:00;;;;;;;15.27;3.85;;;;;;;;;;5035589;28;20042;-58
2021/05/08 06:51:33;;;;;;;10.85;3.38;;;;;;;;;;5035432;28;20457;-58
2021/05/08 06:54:25;;;;;;;11.18;3.55;;;;;;;;;;5035877;28;20045;-54
2021/05/08 06:56:57;;;;;;;11.95;2.97;;;;;;;;;;5034116;28;20041;-55
2021/05/08 06:59:38;;;;;;;11.45;2.97;;;;;;;;;;5034987;28;20049;-55
2021/05/08 07:02:10;;;;;;;19.23;3.33;;;;;;;;;;5035428;28;20508;-57
2021/05/08 07:04:57;;;;;;;10.95;3.13;;;;;;;;;;5035480;28;20111;-58
2021/05/08 07:07:37;;;;;;;18.60;3.53;;;;;;;;;;5035706;28;20112;-57
2021/05/08 07:10:22;;;;;;;9.20;3.80;;;;;;;;;;5035480;28;20053;-58
2021/05/08 07:13:01;;;;;;;9.65;3.30;;;;;;;;;;5035411;28;20033;-58
2021/05/08 07:16:03;;;;;;;9.43;2.70;;;;;;;;;;5035338;28;20046;-57
2021/05/08 07:18:42;;;;;;;8.85;3.22;;;;;;;;;;5035372;28;20038;-56
2021/05/08 07:21:23;;;;;;;7.85;2.95;;;;;;;;;;5034789;28;20052;-56
2021/05/08 07:23:50;;;;;;;15.23;3.67;;;;;;;;;;5034730;28;20044;-57
2021/05/08 07:26:16;;;;;;;20.80;3.53;;;;;;;;;;5035134;28;20046;-57
2021/05/08 07:28:42;;;;;;;8.73;2.95;;;;;;;;;;5034777;28;20485;-57
2021/05/08 07:31:09;;;;;;;13.55;2.88;;;;;;;;;;5035067;28;20103;-58
2021/05/08 07:33:35;;;;;;;11.90;3.28;;;;;;;;;;5035318;28;20065;-58
2021/05/08 07:36:02;;;;;;;8.63;2.55;;;;;;;;;;5030257;28;20073;-59
2021/05/08 07:38:28;;;;;;;8.10;2.47;;;;;;;;;;5027118;28;20123;-58
2021/05/08 07:40:54;;;;;;;10.93;2.17;;;;;;;;;;5024616;28;20057;-58
2021/05/08 07:43:21;;;;;;;6.50;2.30;;;;;;;;;;5019029;28;20045;-58
2021/05/08 07:45:48;;;;;;;13.73;3.33;;;;;;;;;;5025044;28;20463;-55
2021/05/08 07:48:15;;;;;;;12.68;2.40;;;;;;;;;;5025128;28;20041;-59
2021/05/08 07:50:41;;;;;;;10.25;2.55;;;;;;;;;;5022483;28;20041;-57
2021/05/08 07:53:08;;;;;;;9.85;2.83;;;;;;;;;;5027513;28;20047;-58
2021/05/08 07:55:35;;;;;;;10.55;2.33;;;;;;;;;;5023459;28;20045;-58
2021/05/08 07:58:04;;;;;;;14.10;2.67;;;;;;;;;;5022923;28;20056;-58
2021/05/08 08:00:30;;;;;;;7.60;2.35;;;;;;;;;;5023140;28;20052;-57
2021/05/08 08:02:57;;;;;;;7.22;2.75;;;;;;;;;;5014398;28;20037;-59
2021/05/08 08:05:23;;;;;;;13.63;3.25;;;;;;;;;;5022601;28;20060;-56
2021/05/08 08:07:49;;;;;;;7.82;2.20;;;;;;;;;;5023803;28;20488;-57
2021/05/08 08:10:15;;;;;;;12.93;3.13;;;;;;;;;;5018430;28;20394;-57
2021/05/08 08:12:42;;;;;;;8.93;2.88;;;;;;;;;;5020350;28;20120;-57
2021/05/08 08:15:10;;;;;;;13.60;3.28;;;;;;;;;;5024650;28;20099;-58
2021/05/08 08:17:36;;;;;;;11.25;3.08;;;;;;;;;;5021698;28;20038;-58
2021/05/08 08:20:08;;;;;;;8.95;2.65;;;;;;;;;;5023970;28;20057;-58
2021/05/08 08:22:35;;;;;;;10.10;2.72;;;;;;;;;;5026309;28;20053;-58
2021/05/08 08:25:01;;;;;;;13.65;2.72;;;;;;;;;;5023573;28;20542;-57
2021/05/08 08:27:27;;;;;;;9.27;2.50;;;;;;;;;;5023032;28;20443;-57
2021/05/08 08:29:53;;;;;;;8.13;2.60;;;;;;;;;;5022299;28;20045;-56
2021/05/08 08:32:28;;;;;;;11.07;2.85;;;;;;;;;;5085271;27;20376;-58
2021/05/08 08:34:55;;;;;;;;;;;;;;;;;;5084739;28;20040;-57
2021/05/08 08:37:21;;;;;;;6.75;2.03;;;;;;;;;;5074245;28;19980;-56
2021/05/08 08:39:50;;;;;;;8.18;2.47;;;;;;;;;;5077098;28;20040;-56
2021/05/08 08:42:17;;;;;;;7.70;2.63;;;;;;;;;;5069376;28;20137;-56
2021/05/08 08:44:44;;;;;;;7.60;2.38;;;;;;;;;;5076047;28;20131;-56
2021/05/08 08:47:29;;;;;;;7.13;2.30;;;;;;;;;;5076360;28;20064;-56
2021/05/08 08:50:09;;;;;;;7.20;2.60;;;;;;;;;;5076269;28;20063;-55
2021/05/08 08:52:36;;;;;;;10.77;2.50;;;;;;;;;;5075435;28;20041;-55
2021/05/08 08:55:04;;;;;;;8.30;2.58;;;;;;;;;;5075079;28;20028;-55
2021/05/08 08:57:36;;;;;;;10.00;2.70;;;;;;;;;;5073586;28;20403;-54
2021/05/08 09:00:07;;;;;;;8.70;2.80;;;;;;;;;;5073121;28;20450;-53
2021/05/08 09:02:34;;;;;;;6.88;2.17;;;;;;;;;;5073051;28;20071;-53
2021/05/08 09:05:00;;;;;;;7.25;2.33;;;;;;;;;;5070330;28;20033;-57
2021/05/08 09:07:29;;;;;;;10.45;2.30;;;;;;;;;;5074986;28;20055;-56
2021/05/08 09:09:56;;;;;;;5.43;1.90;;;;;;;;;;5070327;28;20037;-56
2021/05/08 09:12:26;;;;;;;13.55;2.42;;;;;;;;;;5068442;28;20095;-55
2021/05/08 09:14:54;;;;;;;6.20;2.00;;;;;;;;;;5077730;28;20033;-56
2021/05/08 09:17:25;;;;;;;11.20;2.53;;;;;;;;;;5076197;28;20044;-56
2021/05/08 09:19:56;;;;;;;7.18;2.10;;;;;;;;;;5075372;28;20056;-56
2021/05/08 09:22:24;;;;;;;5.40;2.40;;;;;;;;;;5071832;28;20044;-56
2021/05/08 09:25:04;;;;;;;12.05;2.50;;;;;;;;;;5067229;28;20037;-56
2021/05/08 09:27:35;;;;;;;6.55;2.50;;;;;;;;;;5071275;28;20048;-55
2021/05/08 09:30:08;;;;;;;11.52;2.50;;;;;;;;;;5071220;28;20840;-58
2021/05/08 09:32:42;;;;;;;11.73;2.63;;;;;;;;;;5070860;28;20106;-56
2021/05/08 09:35:10;;;;;;;9.48;1.90;;;;;;;;;;5071581;28;20582;-56
2021/05/08 09:37:36;;;;;;;;;;;;;;;;;;5074035;28;20040;-55
2021/05/08 09:40:35;;;;;;;8.50;2.65;;;;;;;;;;5069142;28;19929;-56
2021/05/08 09:43:09;;;;;;;21.40;2.90;;;;;;;;;;5040282;28;20049;-55
2021/05/08 09:45:36;;;;;;;10.90;2.10;;;;;;;;;;5057329;28;20063;-55
2021/05/08 09:48:15;;;;;;;5.82;2.17;;;;;;;;;;5060910;28;20044;-56
2021/05/08 09:51:14;;;;;;;6.68;2.28;;;;;;;;;;5056765;28;20094;-57
2021/05/08 09:53:40;;;;;;;9.10;2.60;;;;;;;;;;5058614;28;20045;-57
2021/05/08 09:56:27;;;;;;;9.20;3.00;;;;;;;;;;5057128;28;20551;-53
2021/05/08 09:58:55;;;;;;;8.13;2.50;;;;;;;;;;5054551;28;20400;-54
2021/05/08 10:01:25;;;;;;;5.60;2.17;;;;;;;;;;5056625;28;20055;-56
2021/05/08 10:03:51;;;;;;;8.48;2.75;;;;;;;;;;5057353;28;20037;-56
2021/05/08 10:06:17;;;;;;;5.97;2.10;;;;;;;;;;5065024;28;20098;-55
2021/05/08 10:08:46;;;;;;;10.38;2.60;;;;;;;;;;5056613;28;20067;-56
2021/05/08 10:11:12;;;;;;;8.68;2.67;;;;;;;;;;5057926;28;20045;-56
2021/05/08 10:13:40;;;;;;;5.82;2.13;;;;;;;;;;5061671;28;21204;-56
2021/05/08 10:16:09;;;;;;;4.57;2.00;;;;;;;;;;5056147;28;20043;-55
2021/05/08 10:18:35;;;;;;;8.83;2.53;;;;;;;;;;5060656;28;20071;-55
2021/05/08 10:21:02;;;;;;;7.37;2.53;;;;;;;;;;5061470;28;20044;-56
2021/05/08 10:23:30;;;;;;;7.72;2.67;;;;;;;;;;5061087;28;20051;-54
2021/05/08 10:26:01;;;;;;;11.38;2.70;;;;;;;;;;5061268;28;20049;-57
2021/05/08 10:28:28;;;;;;;11.25;2.63;;;;;;;;;;5060031;28;20044;-56
2021/05/08 10:30:55;;;;;;;8.50;2.70;;;;;;;;;;5054350;28;20423;-54
2021/05/08 10:33:22;;;;;;;6.28;2.33;;;;;;;;;;5062670;28;20055;-56
2021/05/08 10:35:51;;;;;;;7.72;2.80;;;;;;;;;;5060286;28;20483;-57
2021/05/08 10:38:27;;;;;;;8.35;2.10;;;;;;;;;;5057318;28;20550;-56
2021/05/08 10:40:59;;;;;;;9.52;2.67;;;;;;;;;;5057535;28;20044;-52
2021/05/08 10:43:49;;;;;;;3.83;1.70;;;;;;;;;;5060797;28;20048;-56
2021/05/08 10:46:17;;;;;;;5.97;2.30;;;;;;;;;;5054720;28;20052;-56
2021/05/08 10:49:10;;;;;;;11.30;2.90;;;;;;;;;;5056819;28;20035;-55
2021/05/08 10:52:05;;;;;;;10.43;2.80;;;;;;;;;;5057319;28;20067;-55
2021/05/08 10:54:44;;;;;;;11.13;2.60;;;;;;;;;;5049354;28;20128;-56
2021/05/08 10:57:18;;;;;;;6.47;2.10;;;;;;;;;;5058396;28;20048;-55
2021/05/08 11:00:00;;;;;;;5.32;2.25;;;;;;;;;;5058236;28;20064;-56
2021/05/08 11:02:48;;;;;;;5.70;2.20;;;;;;;;;;5056208;28;20480;-56
2021/05/08 11:05:28;;;;;;;5.00;2.17;;;;;;;;;;5057702;28;20055;-56
2021/05/08 11:07:54;;;;;;;9.15;2.38;;;;;;;;;;5056923;28;20063;-56
2021/05/08 11:10:30;;;;;;;12.40;2.25;;;;;;;;;;5057689;28;20044;-56
2021/05/08 11:13:06;;;;;;;9.05;2.53;;;;;;;;;;5059033;28;20049;-59
2021/05/08 11:15:56;;;;;;;6.75;2.40;;;;;;;;;;5058127;28;20040;-54
2021/05/08 11:21:02;;;;;;;19.17;2.53;;;;;;;;;;5054832;28;20064;-55
2021/05/08 11:23:47;;;;;;;5.80;2.10;;;;;;;;;;5056649;28;20048;-54
2021/05/08 11:28:52;;;;;;;5.18;2.35;;;;;;;;;;5057507;28;20501;-53
2021/05/08 11:31:30;;;;;;;7.22;2.17;;;;;;;;;;5056041;28;20059;-55
2021/05/08 11:34:03;;;;;;;7.32;2.17;;;;;;;;;;5053244;28;20081;-56
2021/05/08 11:36:30;;;;;;;6.82;2.30;;;;;;;;;;5063261;28;20067;-56
2021/05/08 11:39:09;;;;;;;9.35;2.00;;;;;;;;;;5056606;28;20033;-56
2021/05/08 11:41:37;;;;;;;9.73;2.33;;;;;;;;;;5056891;28;20052;-56
2021/05/08 11:44:03;;;;;;;5.90;2.15;;;;;;;;;;5059916;28;20498;-56
2021/05/08 11:46:30;;;;;;;5.45;2.17;;;;;;;;;;5057049;28;20048;-56
2021/05/08 11:48:57;;;;;;;6.50;2.13;;;;;;;;;;5060773;28;20476;-54
2021/05/08 11:51:24;;;;;;;5.07;2.17;;;;;;;;;;5053768;28;20392;-56
2021/05/08 11:54:09;;;;;;;7.80;2.10;;;;;;;;;;5051430;28;20445;-55
2021/05/08 11:56:37;;;;;;;4.78;1.90;;;;;;;;;;5053656;28;20044;-57
2021/05/08 11:59:05;;;;;;;7.80;2.03;;;;;;;;;;5054403;28;20039;-55
2021/05/08 12:01:32;;;;;;;6.20;1.85;;;;;;;;;;5050809;28;20053;-56
2021/05/08 12:04:05;;;;;;;6.93;2.17;;;;;;;;;;5054602;28;20052;-55
2021/05/08 12:06:32;;;;;;;5.88;1.77;;;;;;;;;;5056608;28;20032;-54
2021/05/08 12:09:09;;;;;;;7.10;2.30;;;;;;;;;;5053734;28;20064;-56
2021/05/08 12:11:36;;;;;;;7.20;2.40;;;;;;;;;;5051017;28;20047;-56
2021/05/08 12:14:12;;;;;;;6.80;2.08;;;;;;;;;;5052129;28;20048;-54
2021/05/08 12:16:40;;;;;;;5.10;2.20;;;;;;;;;;5055837;28;20045;-56
2021/05/08 12:19:07;;;;;;;5.82;2.05;;;;;;;;;;5051941;28;20120;-55
2021/05/08 12:21:33;;;;;;;4.10;1.83;;;;;;;;;;5053962;28;20044;-56
2021/05/08 12:24:01;;;;;;;5.87;2.27;;;;;;;;;;5055990;28;20040;-54
2021/05/08 12:26:27;;;;;;;8.00;1.90;;;;;;;;;;5053607;28;20060;-56
2021/05/08 12:28:54;;;;;;;6.43;2.30;;;;;;;;;;5056285;28;20043;-56
2021/05/08 12:31:28;;;;;;;5.78;1.90;;;;;;;;;;5055878;28;20067;-55
2021/05/08 12:33:59;;;;;;;6.65;2.22;;;;;;;;;;5056953;28;20045;-57
2021/05/08 12:36:25;;;;;;;9.13;2.42;;;;;;;;;;5054354;28;20111;-54
2021/05/08 12:38:54;;;;;;;6.88;1.88;;;;;;;;;;5057326;28;20045;-55
2021/05/08 12:41:25;;;;;;;8.73;2.60;;;;;;;;;;5052980;28;20049;-55
2021/05/08 12:44:00;;;;;;;5.03;1.95;;;;;;;;;;5056680;28;20041;-56
2021/05/08 12:46:26;;;;;;;8.85;2.15;;;;;;;;;;5057939;28;20055;-55
2021/05/08 12:48:53;;;;;;;4.70;2.20;;;;;;;;;;5060602;28;20039;-56
2021/05/08 12:51:29;;;;;;;7.55;2.15;;;;;;;;;;5059782;28;20049;-56
2021/05/08 12:54:14;;;;;;;6.82;2.60;;;;;;;;;;5056284;28;20461;-56
2021/05/08 12:56:41;;;;;;;11.52;2.30;;;;;;;;;;5053182;28;20033;-57
2021/05/08 12:59:08;;;;;;;8.63;2.10;;;;;;;;;;5052498;28;20032;-57
2021/05/08 13:01:36;;;;;;;6.43;2.15;;;;;;;;;;5057956;28;20045;-54
2021/05/08 13:04:05;;;;;;;12.57;2.95;;;;;;;;;;5054529;28;20041;-55
2021/05/08 13:06:32;;;;;;;6.50;2.33;;;;;;;;;;5056201;28;20389;-54
2021/05/08 13:08:58;;;;;;;6.38;2.30;;;;;;;;;;5055782;28;20129;-55
2021/05/08 13:11:38;;;;;;;3.37;2.10;;;;;;;;;;5051999;28;20049;-56
2021/05/08 13:14:14;;;;;;;4.93;2.03;;;;;;;;;;5056936;28;20295;-57
2021/05/08 13:16:40;;;;;;;5.22;2.35;;;;;;;;;;5056371;28;20067;-56
2021/05/08 13:19:07;;;;;;;11.10;2.75;;;;;;;;;;5058943;28;20502;-54
2021/05/08 13:21:33;;;;;;;12.25;2.55;;;;;;;;;;5058091;28;20036;-55
2021/05/08 13:23:59;;;;;;;8.65;2.45;;;;;;;;;;5062366;28;20473;-56
2021/05/08 13:26:25;;;;;;;8.60;2.70;;;;;;;;;;5056575;28;20045;-55
2021/05/08 13:28:52;;;;;;;7.82;2.40;;;;;;;;;;5058567;28;20076;-54
2021/05/08 13:31:18;;;;;;;8.02;2.70;;;;;;;;;;5056773;28;20053;-56
2021/05/08 13:33:45;;;;;;;5.88;2.45;;;;;;;;;;5061039;28;20555;-55
2021/05/08 13:36:11;;;;;;;5.95;2.40;;;;;;;;;;5060431;28;20131;-54
2021/05/08 13:38:37;;;;;;;5.68;2.65;;;;;;;;;;5056101;28;20033;-56
2021/05/08 13:41:03;;;;;;;8.55;1.98;;;;;;;;;;5058863;28;20045;-56
2021/05/08 13:43:29;;;;;;;4.03;2.00;;;;;;;;;;5058561;28;20063;-55
2021/05/08 13:45:55;;;;;;;6.10;2.13;;;;;;;;;;5053446;28;20037;-56
2021/05/08 13:48:22;;;;;;;4.35;2.00;;;;;;;;;;5059510;28;20049;-56
2021/05/08 13:50:48;;;;;;;6.32;2.05;;;;;;;;;;5060973;28;20086;-55
2021/05/08 13:53:18;;;;;;;7.30;2.10;;;;;;;;;;5056913;28;20187;-55
2021/05/08 13:55:45;;;;;;;4.82;2.13;;;;;;;;;;5056453;28;20037;-57
2021/05/08 13:58:13;;;;;;;6.60;2.30;;;;;;;;;;5057255;28;20580;-57
2021/05/08 14:00:39;;;;;;;10.60;2.70;;;;;;;;;;5055102;28;20299;-56
2021/05/08 14:03:05;;;;;;;6.95;2.50;;;;;;;;;;5057333;28;20040;-56
2021/05/08 14:05:33;;;;;;;9.52;2.20;;;;;;;;;;5066791;28;20032;-56
2021/05/08 14:07:59;;;;;;;7.35;2.03;;;;;;;;;;5058128;28;20118;-55
2021/05/08 14:10:26;;;;;;;7.20;2.38;;;;;;;;;;5062565;28;20056;-57
2021/05/08 14:12:54;;;;;;;4.97;2.20;;;;;;;;;;5058417;28;20048;-57
2021/05/08 14:15:21;;;;;;;9.85;2.35;;;;;;;;;;5059680;28;20045;-56
2021/05/08 14:17:48;;;;;;;8.75;2.35;;;;;;;;;;5057091;28;20103;-57
2021/05/08 14:20:14;;;;;;;10.45;2.25;;;;;;;;;;5051944;28;20047;-57
2021/05/08 14:22:40;;;;;;;12.13;2.72;;;;;;;;;;5062533;28;20137;-57
2021/05/08 14:25:09;;;;;;;9.40;2.85;;;;;;;;;;5056035;28;20044;-57
2021/05/08 14:27:35;;;;;;;8.52;2.28;;;;;;;;;;5060347;28;20044;-57
2021/05/08 14:30:07;;;;;;;7.85;2.25;;;;;;;;;;5056206;28;20045;-56
2021/05/08 14:32:33;;;;;;;6.28;2.45;;;;;;;;;;5054327;28;20052;-56
2021/05/08 14:34:59;;;;;;;8.32;2.13;;;;;;;;;;5057885;28;20036;-55
2021/05/08 14:37:26;;;;;;;4.13;2.10;;;;;;;;;;5057636;28;20670;-55
2021/05/08 14:39:53;;;;;;;5.60;2.17;;;;;;;;;;5057785;28;20064;-57
2021/05/08 14:42:22;;;;;;;3.38;1.80;;;;;;;;;;5059296;28;20041;-57
2021/05/08 14:44:49;;;;;;;10.90;2.85;;;;;;;;;;5058681;28;20044;-56
2021/05/08 14:47:16;;;;;;;7.85;3.00;;;;;;;;;;5060501;28;20055;-57
2021/05/08 14:49:44;;;;;;;8.70;2.78;;;;;;;;;;5055989;28;20075;-57
2021/05/08 14:52:10;;;;;;;5.77;2.47;;;;;;;;;;5056779;28;20045;-54
2021/05/08 14:54:37;;;;;;;8.63;2.20;;;;;;;;;;5053180;28;20064;-55
2021/05/08 14:57:03;;;;;;;7.90;2.72;;;;;;;;;;5060850;28;20119;-57
2021/05/08 14:59:29;;;;;;;6.80;2.20;;;;;;;;;;5056130;28;20045;-56